ADDS METAR Data INFO
IDs: Format: Raw Decoded Include TAF

Data at: 1811 UTC 18 Feb 2018

KL18 181755Z AUTO 17003KT 10SM CLR 17/04 A3001 RMK AO2
KL18 181735Z AUTO 00000KT 10SM CLR 16/02 A3001 RMK AO2
KL18 181715Z AUTO 00000KT 10SM CLR 15/00 A3001 RMK AO2
KL18 181655Z AUTO 00000KT 10SM CLR 14/01 A3001 RMK AO2
KL18 181635Z AUTO 18003KT 10SM CLR 12/M00 A3001 RMK AO2
KL18 181615Z AUTO 00000KT 10SM CLR 11/00 A3001 RMK AO2
KL18 181555Z AUTO 00000KT 10SM CLR 12/M01 A3001 RMK AO2
KL18 181535Z AUTO 00000KT 10SM CLR 11/M01 A3000 RMK AO2
KL18 181515Z AUTO 01005KT 10SM CLR 11/M02 A2999 RMK AO2
KL18 181455Z AUTO 01006KT 10SM CLR 10/M02 A2999 RMK AO2
KL18 181435Z AUTO 02005KT 10SM CLR 09/M02 A2999 RMK AO2
KL18 181415Z AUTO 02005KT 10SM CLR 09/M02 A2999 RMK AO2
KL18 181355Z AUTO 03004KT 10SM CLR 09/M02 A2999 RMK AO2
KL18 181335Z AUTO 02004KT 10SM CLR 09/M03 A2999 RMK AO2
KL18 181315Z AUTO 02005KT 10SM CLR 09/M03 A2999 RMK AO2
KL18 181255Z AUTO 02005KT 10SM CLR 09/M03 A2999 RMK AO2
KL18 181235Z AUTO 02005KT 10SM CLR 10/M03 A2999 RMK AO2
KL18 181215Z AUTO 01007KT 10SM CLR 10/M03 A2999 RMK AO2
KL18 181155Z AUTO 01007KT 10SM CLR 09/M02 A3000 RMK AO2
KL18 181135Z AUTO 02006KT 10SM CLR 09/M02 A3000 RMK AO2
KL18 181115Z AUTO 36007KT 10SM CLR 10/M02 A3001 RMK AO2
KL18 181055Z AUTO 02006KT 10SM CLR 10/M02 A3001 RMK AO2
KL18 181035Z AUTO 36006KT 10SM CLR 10/M01 A3002 RMK AO2
KL18 181015Z AUTO 01010KT 10SM CLR 10/M00 A3002 RMK AO2
KL18 180955Z AUTO 03005KT 10SM CLR 10/01 A3002 RMK AO2
KL18 180935Z AUTO 00000KT 10SM CLR 10/00 A3003 RMK AO2
KL18 180915Z AUTO 02005KT 10SM CLR 10/00 A3003 RMK AO2
KL18 180855Z AUTO 02004KT 10SM CLR 10/01 A3004 RMK AO2
KL18 180835Z AUTO 01005KT 10SM CLR 10/01 A3004 RMK AO2
KL18 180815Z AUTO 02005KT 10SM CLR 11/01 A3004 RMK AO2
KL18 180755Z AUTO 02006KT 10SM CLR 11/03 A3004 RMK AO2
KL18 180735Z AUTO 01006KT 10SM CLR 11/02 A3004 RMK AO2
KL18 180715Z AUTO 02006KT 10SM CLR 11/03 A3005 RMK AO2
KL18 180655Z AUTO 01006KT 10SM CLR 11/03 A3005 RMK AO2
KL18 180635Z AUTO 01011KT 10SM CLR 11/06 A3005 RMK AO2
KL18 180615Z AUTO 00000KT 10SM CLR 12/06 A3005 RMK AO2
KL18 180555Z AUTO 00000KT 10SM CLR 12/06 A3006 RMK AO2
KL18 180535Z AUTO 20008KT 10SM CLR 12/06 A3006 RMK AO2
KL18 180515Z AUTO 00000KT 10SM CLR 13/06 A3006 RMK AO2
KL18 180455Z AUTO 13004KT 10SM CLR 13/06 A3006 RMK AO2
KL18 180435Z AUTO 10007KT 10SM CLR 12/05 A3005 RMK AO2
KL18 180415Z AUTO 09004KT 10SM CLR 12/04 A3005 RMK AO2
KL18 180355Z AUTO 09005KT 10SM CLR 13/04 A3005 RMK AO2
KL18 180335Z AUTO 12003KT 10SM CLR 14/03 A3005 RMK AO2
KL18 180315Z AUTO 13003KT 10SM CLR 14/03 A3005 RMK AO2
KL18 180255Z AUTO 11003KT 10SM CLR 14/02 A3005 RMK AO2
KL18 180235Z AUTO 00000KT 10SM CLR 15/01 A3004 RMK AO2
KL18 180215Z AUTO 00000KT 10SM CLR 16/00 A3004 RMK AO2
KL18 180155Z AUTO 00000KT 10SM CLR 17/M01 A3004 RMK AO2
KL18 180135Z AUTO 00000KT 10SM CLR 18/M01 A3004 RMK AO2
KL18 180115Z AUTO 22005KT 10SM CLR 19/M03 A3003 RMK AO2
KL18 180055Z AUTO 24006KT 10SM CLR 20/M03 A3004 RMK AO2
KL18 180035Z AUTO 25009KT 10SM CLR 22/M03 A3003 RMK AO2
KL18 180015Z AUTO 22007KT 10SM CLR 22/M02 A3003 RMK AO2
KL18 172355Z AUTO 23010KT 10SM CLR 22/M03 A3004 RMK AO2
KL18 172335Z AUTO 23011KT 10SM CLR 21/M02 A3004 RMK AO2
KL18 172315Z AUTO 23011KT 10SM CLR 21/M02 A3004 RMK AO2
KL18 172255Z AUTO 23009G14KT 10SM CLR 22/M02 A3004 RMK AO2
KL18 172235Z AUTO 22010KT 10SM CLR 22/M03 A3005 RMK AO2
KL18 172215Z AUTO 21006KT 10SM CLR 23/M03 A3006 RMK AO2
KL18 172155Z AUTO 25007KT 10SM CLR 23/M02 A3006 RMK AO2
KL18 172135Z AUTO 23008KT 10SM CLR 23/M04 A3007 RMK AO2
KL18 172115Z AUTO 26005KT 10SM CLR 23/M08 A3008 RMK AO2
KL18 172055Z AUTO 25003KT 10SM CLR 23/M08 A3009 RMK AO2
KL18 172035Z AUTO 25006KT 10SM CLR 23/M06 A3010 RMK AO2
KL18 172015Z AUTO 24006KT 10SM CLR 23/M05 A3011 RMK AO2
KL18 171955Z AUTO 19006KT 10SM CLR 22/M06 A3012 RMK AO2
KL18 171935Z AUTO 23007KT 10SM CLR 23/M06 A3013 RMK AO2
KL18 171915Z AUTO 23006KT 10SM CLR 22/M05 A3014 RMK AO2
KL18 171855Z AUTO 24004KT 10SM CLR 22/M07 A3015 RMK AO2
KL18 171835Z AUTO 24004KT 10SM CLR 21/M06 A3015 RMK AO2
KL18 171815Z AUTO 00000KT 10SM CLR 20/M07 A3015 RMK AO2
KL18 171755Z AUTO 00000KT 10SM CLR 20/M06 A3015 RMK AO2
KL18 171735Z AUTO 00000KT 10SM CLR 19/M06 A3014 RMK AO2
KL18 171715Z AUTO 00000KT 10SM CLR 18/M06 A3014 RMK AO2
KL18 171655Z AUTO 04004KT 10SM CLR 16/M06 A3014 RMK AO2
KL18 171635Z AUTO 03005KT 10SM CLR 15/M05 A3014 RMK AO2
KL18 171615Z AUTO 03005KT 10SM CLR 14/M06 A3013 RMK AO2
KL18 171555Z AUTO 04005KT 10SM CLR 13/M06 A3012 RMK AO2
KL18 171535Z AUTO 04004KT 10SM CLR 12/M06 A3011 RMK AO2
KL18 171515Z AUTO 02005KT 10SM CLR 11/M06 A3011 RMK AO2
KL18 171455Z AUTO 01006KT 10SM CLR 10/M07 A3011 RMK AO2
KL18 171435Z AUTO 02005KT 10SM CLR 10/M08 A3011 RMK AO2
KL18 171415Z AUTO 01006KT 10SM CLR 10/M08 A3010 RMK AO2
KL18 171355Z AUTO 02005KT 10SM CLR 10/M08 A3010 RMK AO2
KL18 171335Z AUTO 03005KT 10SM CLR 10/M07 A3010 RMK AO2
KL18 171315Z AUTO 02004KT 10SM CLR 10/M07 A3010 RMK AO2
KL18 171255Z AUTO 01004KT 10SM CLR 11/M06 A3010 RMK AO2
KL18 171235Z AUTO 04004KT 10SM CLR 11/M07 A3010 RMK AO2
KL18 171215Z AUTO 07004KT 10SM CLR 11/M07 A3010 RMK AO2
KL18 171155Z AUTO 07003KT 10SM CLR 11/M08 A3010 RMK AO2
KL18 171135Z AUTO 08003KT 10SM CLR 11/M08 A3010 RMK AO2
KL18 171115Z AUTO 05005KT 10SM CLR 11/M08 A3010 RMK AO2
KL18 171055Z AUTO 03006KT 10SM CLR 12/M08 A3011 RMK AO2
KL18 171035Z AUTO 00000KT 10SM CLR 12/M08 A3010 RMK AO2
KL18 171015Z AUTO 05004KT 10SM CLR 11/M08 A3011 RMK AO2
KL18 170955Z AUTO 03005KT 10SM CLR 12/M08 A3011 RMK AO2
KL18 170935Z AUTO 04003KT 10SM CLR 12/M08 A3011 RMK AO2
KL18 170915Z AUTO 04004KT 10SM CLR 12/M08 A3011 RMK AO2
KL18 170855Z AUTO 04005KT 10SM CLR 13/M08 A3012 RMK AO2
KL18 170835Z AUTO 03004KT 10SM CLR 12/M07 A3012 RMK AO2
KL18 170815Z AUTO 05003KT 10SM CLR 12/M06 A3012 RMK AO2
KL18 170755Z AUTO 01006KT 10SM CLR 12/M06 A3012 RMK AO2
KL18 170735Z AUTO 36006KT 10SM CLR 12/M05 A3012 RMK AO2
KL18 170715Z AUTO 01007KT 10SM CLR 12/M05 A3013 RMK AO2
KL18 170655Z AUTO 01006KT 10SM CLR 12/M05 A3013 RMK AO2
KL18 170635Z AUTO 01007KT 10SM CLR 12/M05 A3013 RMK AO2
KL18 170615Z AUTO 02008KT 10SM CLR 12/M05 A3012 RMK AO2